sensor_id;sensor_type;location;lat;lon;timestamp;P1;P4;P2;P0;N10;N4;N25;N1;N05;TS
44530;SPS30;30240;47.418;0.700;2023-07-31T00:00:29;3.1195142;;2.968847;;;;;;;
44530;SPS30;30240;47.418;0.700;2023-07-31T00:02:54;2.5942934;;2.4730365;;;;;;;
44530;SPS30;30240;47.418;0.700;2023-07-31T00:05:18;3.3323834;;3.1635318;;;;;;;
44530;SPS30;30240;47.418;0.700;2023-07-31T00:07:43;3.3323834;;3.1635318;;;;;;;
44530;SPS30;30240;47.418;0.700;2023-07-31T00:10:09;2.9296405;;2.7918472;;;;;;;
44530;SPS30;30240;47.418;0.700;2023-07-31T00:12:34;3.2979586;;3.1485686;;;;;;;
44530;SPS30;30240;47.418;0.700;2023-07-31T00:14:58;3.0319448;;2.9068077;;;;;;;
44530;SPS30;30240;47.418;0.700;2023-07-31T00:17:24;2.6467984;;2.5310984;;;;;;;
44530;SPS30;30240;47.418;0.700;2023-07-31T00:19:48;2.6467984;;2.5310984;;;;;;;
44530;SPS30;30240;47.418;0.700;2023-07-31T00:22:13;3.1405811;;2.9411988;;;;;;;
44530;SPS30;30240;47.418;0.700;2023-07-31T00:24:39;3.127045;;2.8854482;;;;;;;
44530;SPS30;30240;47.418;0.700;2023-07-31T00:27:04;3.5377126;;3.2317579;;;;;;;
44530;SPS30;30240;47.418;0.700;2023-07-31T00:29:29;2.9412878;;2.7406561;;;;;;;
44530;SPS30;30240;47.418;0.700;2023-07-31T00:31:53;2.9412878;;2.7406561;;;;;;;
44530;SPS30;30240;47.418;0.700;2023-07-31T00:34:18;3.1921363;;2.9452083;;;;;;;
44530;SPS30;30240;47.418;0.700;2023-07-31T00:36:43;3.4782438;;3.1142945;;;;;;;
44530;SPS30;30240;47.418;0.700;2023-07-31T00:39:08;3.2626936;;2.9700716;;;;;;;
44530;SPS30;30240;47.418;0.700;2023-07-31T00:41:33;3.1451945;;2.8815992;;;;;;;
44530;SPS30;30240;47.418;0.700;2023-07-31T00:43:58;2.3910844;;2.2520764;;;;;;;
44530;SPS30;30240;47.418;0.700;2023-07-31T00:46:24;2.3910844;;2.2520764;;;;;;;
44530;SPS30;30240;47.418;0.700;2023-07-31T00:48:49;3.0069025;;2.865332;;;;;;;
44530;SPS30;30240;47.418;0.700;2023-07-31T00:51:13;3.3872542;;3.114756;;;;;;;
44530;SPS30;30240;47.418;0.700;2023-07-31T00:53:38;3.4755192;;3.1842299;;;;;;;
44530;SPS30;30240;47.418;0.700;2023-07-31T00:56:04;3.9197767;;3.677955;;;;;;;
44530;SPS30;30240;47.418;0.700;2023-07-31T00:58:28;3.9197767;;3.677955;;;;;;;
44530;SPS30;30240;47.418;0.700;2023-07-31T01:00:54;3.4146726;;3.2283256;;;;;;;
44530;SPS30;30240;47.418;0.700;2023-07-31T01:03:19;3.703132;;3.454363;;;;;;;
44530;SPS30;30240;47.418;0.700;2023-07-31T01:05:46;3.6189125;;3.3614357;;;;;;;
44530;SPS30;30240;47.418;0.700;2023-07-31T01:08:11;3.148134;;2.9686;;;;;;;
44530;SPS30;30240;47.418;0.700;2023-07-31T01:10:34;3.148134;;2.9686;;;;;;;
44530;SPS30;30240;47.418;0.700;2023-07-31T01:12:59;3.1835237;;3.0153801;;;;;;;
44530;SPS30;30240;47.418;0.700;2023-07-31T01:15:23;3.5824406;;3.3410544;;;;;;;
44530;SPS30;30240;47.418;0.700;2023-07-31T01:17:48;3.972818;;3.6085315;;;;;;;
44530;SPS30;30240;47.418;0.700;2023-07-31T01:20:14;3.296476;;3.0548973;;;;;;;
44530;SPS30;30240;47.418;0.700;2023-07-31T01:22:44;3.296476;;3.0548973;;;;;;;
44530;SPS30;30240;47.418;0.700;2023-07-31T01:22:51;3.296476;;3.0548973;;;;;;;
44530;SPS30;30240;47.418;0.700;2023-07-31T01:22:58;3.296476;;3.0548973;;;;;;;
44530;SPS30;30240;47.418;0.700;2023-07-31T01:23:07;3.296476;;3.0548973;;;;;;;
44530;SPS30;30240;47.418;0.700;2023-07-31T01:25:06;3.108491;;2.9135716;;;;;;;
44530;SPS30;30240;47.418;0.700;2023-07-31T01:27:29;2.9233062;;2.730989;;;;;;;
44530;SPS30;30240;47.418;0.700;2023-07-31T01:29:55;3.5378237;;3.3253953;;;;;;;
44530;SPS30;30240;47.418;0.700;2023-07-31T01:32:18;3.209186;;3.0320632;;;;;;;
44530;SPS30;30240;47.418;0.700;2023-07-31T01:34:43;3.209186;;3.0320632;;;;;;;
44530;SPS30;30240;47.418;0.700;2023-07-31T01:37:09;3.4917157;;3.3083603;;;;;;;
44530;SPS30;30240;47.418;0.700;2023-07-31T01:39:33;3.1616194;;2.9794972;;;;;;;
44530;SPS30;30240;47.418;0.700;2023-07-31T01:41:58;2.9946587;;2.8146803;;;;;;;
44530;SPS30;30240;47.418;0.700;2023-07-31T01:44:24;2.9629796;;2.767732;;;;;;;
44530;SPS30;30240;47.418;0.700;2023-07-31T01:46:48;2.9629796;;2.767732;;;;;;;
44530;SPS30;30240;47.418;0.700;2023-07-31T01:49:14;3.342168;;3.1303363;;;;;;;
44530;SPS30;30240;47.418;0.700;2023-07-31T01:51:39;3.5010884;;3.3315346;;;;;;;
44530;SPS30;30240;47.418;0.700;2023-07-31T01:54:03;3.241773;;3.046592;;;;;;;
44530;SPS30;30240;47.418;0.700;2023-07-31T01:56:29;4.071785;;3.8163595;;;;;;;
44530;SPS30;30240;47.418;0.700;2023-07-31T01:58:54;4.071785;;3.8163595;;;;;;;
44530;SPS30;30240;47.418;0.700;2023-07-31T02:01:19;3.574955;;3.3319345;;;;;;;
44530;SPS30;30240;47.418;0.700;2023-07-31T02:03:43;3.1687198;;2.9654124;;;;;;;
44530;SPS30;30240;47.418;0.700;2023-07-31T02:06:09;3.5428977;;3.4171624;;;;;;;
44530;SPS30;30240;47.418;0.700;2023-07-31T02:08:33;3.333645;;3.1404393;;;;;;;
44530;SPS30;30240;47.418;0.700;2023-07-31T02:10:59;3.518224;;3.2489045;;;;;;;
44530;SPS30;30240;47.418;0.700;2023-07-31T02:13:23;3.518224;;3.2489045;;;;;;;
44530;SPS30;30240;47.418;0.700;2023-07-31T02:15:48;4.2384987;;3.7963386;;;;;;;
44530;SPS30;30240;47.418;0.700;2023-07-31T02:18:14;3.9520617;;3.5502846;;;;;;;
44530;SPS30;30240;47.418;0.700;2023-07-31T02:20:38;3.443572;;3.1341712;;;;;;;
44530;SPS30;30240;47.418;0.700;2023-07-31T02:23:03;2.9290965;;2.7101007;;;;;;;
44530;SPS30;30240;47.418;0.700;2023-07-31T02:25:29;2.9290965;;2.7101007;;;;;;;
44530;SPS30;30240;47.418;0.700;2023-07-31T02:27:53;4.096149;;3.772801;;;;;;;
44530;SPS30;30240;47.418;0.700;2023-07-31T02:30:18;3.81692;;3.5195131;;;;;;;
44530;SPS30;30240;47.418;0.700;2023-07-31T02:32:43;4.2055526;;3.8363917;;;;;;;
44530;SPS30;30240;47.418;0.700;2023-07-31T02:35:09;4.289142;;3.9386947;;;;;;;
44530;SPS30;30240;47.418;0.700;2023-07-31T02:37:34;4.289142;;3.9386947;;;;;;;
44530;SPS30;30240;47.418;0.700;2023-07-31T02:39:59;3.616726;;3.3810427;;;;;;;
44530;SPS30;30240;47.418;0.700;2023-07-31T02:42:23;3.8827858;;3.6236222;;;;;;;
44530;SPS30;30240;47.418;0.700;2023-07-31T02:44:48;4.408733;;4.0514345;;;;;;;
44530;SPS30;30240;47.418;0.700;2023-07-31T02:47:14;3.6993299;;3.4455783;;;;;;;
44530;SPS30;30240;47.418;0.700;2023-07-31T02:49:39;3.6993299;;3.4455783;;;;;;;
44530;SPS30;30240;47.418;0.700;2023-07-31T02:52:04;4.281142;;4.007953;;;;;;;
44530;SPS30;30240;47.418;0.700;2023-07-31T02:54:28;3.5948858;;3.3169198;;;;;;;
44530;SPS30;30240;47.418;0.700;2023-07-31T02:56:53;5.1620793;;4.5872917;;;;;;;
44530;SPS30;30240;47.418;0.700;2023-07-31T02:59:19;4.389705;;3.9507148;;;;;;;
44530;SPS30;30240;47.418;0.700;2023-07-31T03:01:44;4.389705;;3.9507148;;;;;;;
44530;SPS30;30240;47.418;0.700;2023-07-31T03:04:08;4.561707;;4.153835;;;;;;;
44530;SPS30;30240;47.418;0.700;2023-07-31T03:06:33;5.2516184;;4.665288;;;;;;;
44530;SPS30;30240;47.418;0.700;2023-07-31T03:08:59;4.2568083;;3.8822832;;;;;;;
44530;SPS30;30240;47.418;0.700;2023-07-31T03:11:23;4.2703424;;3.8764522;;;;;;;
44530;SPS30;30240;47.418;0.700;2023-07-31T03:13:48;4.2703424;;3.8764522;;;;;;;
44530;SPS30;30240;47.418;0.700;2023-07-31T03:16:14;4.4929767;;4.056053;;;;;;;
44530;SPS30;30240;47.418;0.700;2023-07-31T03:18:38;4.8635287;;4.3557253;;;;;;;
44530;SPS30;30240;47.418;0.700;2023-07-31T03:21:04;4.3202515;;4.0584884;;;;;;;
44530;SPS30;30240;47.418;0.700;2023-07-31T03:23:28;4.5607467;;4.197697;;;;;;;
44530;SPS30;30240;47.418;0.700;2023-07-31T03:25:55;4.5607467;;4.197697;;;;;;;
44530;SPS30;30240;47.418;0.700;2023-07-31T03:28:18;4.287892;;3.9057906;;;;;;;
44530;SPS30;30240;47.418;0.700;2023-07-31T03:30:43;4.603375;;4.265992;;;;;;;
44530;SPS30;30240;47.418;0.700;2023-07-31T03:33:08;4.32571;;3.9837856;;;;;;;
44530;SPS30;30240;47.418;0.700;2023-07-31T03:35:33;4.971961;;4.527956;;;;;;;
44530;SPS30;30240;47.418;0.700;2023-07-31T03:37:58;5.132646;;4.553009;;;;;;;
44530;SPS30;30240;47.418;0.700;2023-07-31T03:40:23;5.132646;;4.553009;;;;;;;
44530;SPS30;30240;47.418;0.700;2023-07-31T03:42:49;4.6699815;;4.198244;;;;;;;
44530;SPS30;30240;47.418;0.700;2023-07-31T03:45:13;5.3650455;;4.784442;;;;;;;
44530;SPS30;30240;47.418;0.700;2023-07-31T03:47:38;5.337953;;4.8236794;;;;;;;
44530;SPS30;30240;47.418;0.700;2023-07-31T03:50:04;4.8421865;;4.3296533;;;;;;;
44530;SPS30;30240;47.418;0.700;2023-07-31T03:52:28;4.8421865;;4.3296533;;;;;;;
44530;SPS30;30240;47.418;0.700;2023-07-31T03:54:53;5.58399;;4.986731;;;;;;;
44530;SPS30;30240;47.418;0.700;2023-07-31T03:57:18;5.2409024;;4.7094097;;;;;;;
44530;SPS30;30240;47.418;0.700;2023-07-31T03:59:43;5.7347717;;5.172672;;;;;;;
44530;SPS30;30240;47.418;0.700;2023-07-31T04:02:08;4.6440253;;4.15448;;;;;;;
44530;SPS30;30240;47.418;0.700;2023-07-31T04:04:34;4.6440253;;4.15448;;;;;;;
44530;SPS30;30240;47.418;0.700;2023-07-31T04:06:58;4.5187354;;4.0992928;;;;;;;
44530;SPS30;30240;47.418;0.700;2023-07-31T04:09:23;4.978202;;4.580515;;;;;;;
44530;SPS30;30240;47.418;0.700;2023-07-31T04:11:48;5.162043;;4.6982527;;;;;;;
44530;SPS30;30240;47.418;0.700;2023-07-31T04:14:13;5.0030093;;4.609798;;;;;;;
44530;SPS30;30240;47.418;0.700;2023-07-31T04:16:38;5.0030093;;4.609798;;;;;;;
44530;SPS30;30240;47.418;0.700;2023-07-31T04:19:03;4.763002;;4.326712;;;;;;;
44530;SPS30;30240;47.418;0.700;2023-07-31T04:21:28;5.6818676;;5.183134;;;;;;;
44530;SPS30;30240;47.418;0.700;2023-07-31T04:23:53;4.816422;;4.4470487;;;;;;;
44530;SPS30;30240;47.418;0.700;2023-07-31T04:26:19;4.722438;;4.4005327;;;;;;;
44530;SPS30;30240;47.418;0.700;2023-07-31T04:28:43;4.722438;;4.4005327;;;;;;;
44530;SPS30;30240;47.418;0.700;2023-07-31T04:31:08;5.6939306;;5.296205;;;;;;;
44530;SPS30;30240;47.418;0.700;2023-07-31T04:33:33;5.039595;;4.6734776;;;;;;;
44530;SPS30;30240;47.418;0.700;2023-07-31T04:35:59;4.932357;;4.489342;;;;;;;
44530;SPS30;30240;47.418;0.700;2023-07-31T04:38:24;5.2750206;;4.6716695;;;;;;;
44530;SPS30;30240;47.418;0.700;2023-07-31T04:40:48;5.2750206;;4.6716695;;;;;;;
44530;SPS30;30240;47.418;0.700;2023-07-31T04:43:13;5.1854987;;4.7284517;;;;;;;
44530;SPS30;30240;47.418;0.700;2023-07-31T04:45:38;5.0226426;;4.665862;;;;;;;
44530;SPS30;30240;47.418;0.700;2023-07-31T04:48:04;5.3342566;;4.902437;;;;;;;
44530;SPS30;30240;47.418;0.700;2023-07-31T04:50:29;5.1235805;;4.6812825;;;;;;;
44530;SPS30;30240;47.418;0.700;2023-07-31T04:52:53;5.1235805;;4.6812825;;;;;;;
44530;SPS30;30240;47.418;0.700;2023-07-31T04:55:18;4.8289;;4.446006;;;;;;;
44530;SPS30;30240;47.418;0.700;2023-07-31T04:57:43;5.4845037;;4.8799295;;;;;;;
44530;SPS30;30240;47.418;0.700;2023-07-31T05:00:09;5.068649;;4.59099;;;;;;;
44530;SPS30;30240;47.418;0.700;2023-07-31T05:02:33;5.1777596;;4.6363106;;;;;;;
44530;SPS30;30240;47.418;0.700;2023-07-31T05:04:58;5.1777596;;4.6363106;;;;;;;
44530;SPS30;30240;47.418;0.700;2023-07-31T05:07:24;5.1495476;;4.5825963;;;;;;;
44530;SPS30;30240;47.418;0.700;2023-07-31T05:09:48;5.5479965;;4.8414993;;;;;;;
44530;SPS30;30240;47.418;0.700;2023-07-31T05:12:13;4.5682116;;4.150947;;;;;;;
44530;SPS30;30240;47.418;0.700;2023-07-31T05:14:38;4.3995523;;4.038289;;;;;;;
44530;SPS30;30240;47.418;0.700;2023-07-31T05:17:03;5.753449;;5.091684;;;;;;;
44530;SPS30;30240;47.418;0.700;2023-07-31T05:19:28;5.753449;;5.091684;;;;;;;
44530;SPS30;30240;47.418;0.700;2023-07-31T05:21:53;5.023528;;4.496738;;;;;;;
44530;SPS30;30240;47.418;0.700;2023-07-31T05:24:18;5.4148345;;4.978619;;;;;;;
44530;SPS30;30240;47.418;0.700;2023-07-31T05:26:43;6.138427;;5.4753094;;;;;;;
44530;SPS30;30240;47.418;0.700;2023-07-31T05:29:08;5.220469;;4.7449846;;;;;;;
44530;SPS30;30240;47.418;0.700;2023-07-31T05:31:33;5.220469;;4.7449846;;;;;;;
44530;SPS30;30240;47.418;0.700;2023-07-31T05:33:58;5.2257094;;4.685557;;;;;;;
44530;SPS30;30240;47.418;0.700;2023-07-31T05:36:23;4.9517016;;4.4947724;;;;;;;
44530;SPS30;30240;47.418;0.700;2023-07-31T05:38:48;4.162101;;3.8037062;;;;;;;
44530;SPS30;30240;47.418;0.700;2023-07-31T05:41:13;5.6666923;;5.2559137;;;;;;;
44530;SPS30;30240;47.418;0.700;2023-07-31T05:43:39;5.6666923;;5.2559137;;;;;;;
44530;SPS30;30240;47.418;0.700;2023-07-31T05:46:03;5.0265684;;4.5891433;;;;;;;
44530;SPS30;30240;47.418;0.700;2023-07-31T05:48:29;5.3122735;;4.835745;;;;;;;
44530;SPS30;30240;47.418;0.700;2023-07-31T05:50:54;5.118282;;4.645054;;;;;;;
44530;SPS30;30240;47.418;0.700;2023-07-31T05:53:19;5.070201;;4.606812;;;;;;;
44530;SPS30;30240;47.418;0.700;2023-07-31T05:55:43;5.070201;;4.606812;;;;;;;
44530;SPS30;30240;47.418;0.700;2023-07-31T05:58:08;4.5397353;;4.221091;;;;;;;
44530;SPS30;30240;47.418;0.700;2023-07-31T06:00:33;5.1759653;;4.7561727;;;;;;;
44530;SPS30;30240;47.418;0.700;2023-07-31T06:02:58;5.901168;;5.358405;;;;;;;
44530;SPS30;30240;47.418;0.700;2023-07-31T06:05:23;4.831554;;4.3923755;;;;;;;
44530;SPS30;30240;47.418;0.700;2023-07-31T06:07:48;4.831554;;4.3923755;;;;;;;
44530;SPS30;30240;47.418;0.700;2023-07-31T06:10:13;5.6254053;;5.149038;;;;;;;
44530;SPS30;30240;47.418;0.700;2023-07-31T06:12:38;4.9343576;;4.5197296;;;;;;;
44530;SPS30;30240;47.418;0.700;2023-07-31T06:15:04;4.9949117;;4.561406;;;;;;;
44530;SPS30;30240;47.418;0.700;2023-07-31T06:17:29;4.9349685;;4.476955;;;;;;;
44530;SPS30;30240;47.418;0.700;2023-07-31T06:19:53;4.9349685;;4.476955;;;;;;;
44530;SPS30;30240;47.418;0.700;2023-07-31T06:22:18;5.0821314;;4.549735;;;;;;;
44530;SPS30;30240;47.418;0.700;2023-07-31T06:24:43;5.7350726;;5.199909;;;;;;;
44530;SPS30;30240;47.418;0.700;2023-07-31T06:27:08;4.728881;;4.2728086;;;;;;;
44530;SPS30;30240;47.418;0.700;2023-07-31T06:29:34;5.2138042;;4.8073854;;;;;;;
44530;SPS30;30240;47.418;0.700;2023-07-31T06:31:58;5.2138042;;4.8073854;;;;;;;
44530;SPS30;30240;47.418;0.700;2023-07-31T06:34:23;5.022967;;4.5793934;;;;;;;
44530;SPS30;30240;47.418;0.700;2023-07-31T06:36:48;5.257962;;4.6798472;;;;;;;
44530;SPS30;30240;47.418;0.700;2023-07-31T06:39:13;5.3947306;;4.953974;;;;;;;
44530;SPS30;30240;47.418;0.700;2023-07-31T06:41:39;5.807833;;5.3293805;;;;;;;
44530;SPS30;30240;47.418;0.700;2023-07-31T06:44:03;5.2193184;;4.7210417;;;;;;;
44530;SPS30;30240;47.418;0.700;2023-07-31T06:46:28;5.2193184;;4.7210417;;;;;;;
44530;SPS30;30240;47.418;0.700;2023-07-31T06:48:53;6.175514;;5.558821;;;;;;;
44530;SPS30;30240;47.418;0.700;2023-07-31T06:51:18;5.1111627;;4.708744;;;;;;;
44530;SPS30;30240;47.418;0.700;2023-07-31T06:53:43;5.427859;;4.9235587;;;;;;;
44530;SPS30;30240;47.418;0.700;2023-07-31T06:56:08;5.559524;;5.078666;;;;;;;
44530;SPS30;30240;47.418;0.700;2023-07-31T06:58:33;5.559524;;5.078666;;;;;;;
44530;SPS30;30240;47.418;0.700;2023-07-31T07:00:58;4.5085745;;4.218326;;;;;;;
44530;SPS30;30240;47.418;0.700;2023-07-31T07:03:23;4.985131;;4.667443;;;;;;;
44530;SPS30;30240;47.418;0.700;2023-07-31T07:05:48;4.5484934;;4.2641406;;;;;;;
44530;SPS30;30240;47.418;0.700;2023-07-31T07:08:13;4.743462;;4.3607693;;;;;;;
44530;SPS30;30240;47.418;0.700;2023-07-31T07:10:38;4.743462;;4.3607693;;;;;;;
44530;SPS30;30240;47.418;0.700;2023-07-31T07:13:03;4.1501555;;3.823565;;;;;;;
44530;SPS30;30240;47.418;0.700;2023-07-31T07:15:28;4.0849166;;3.8772879;;;;;;;
44530;SPS30;30240;47.418;0.700;2023-07-31T07:17:53;4.9732547;;4.6373887;;;;;;;
44530;SPS30;30240;47.418;0.700;2023-07-31T07:20:18;4.9218526;;4.50822;;;;;;;
44530;SPS30;30240;47.418;0.700;2023-07-31T07:22:43;4.9218526;;4.50822;;;;;;;
44530;SPS30;30240;47.418;0.700;2023-07-31T07:25:08;4.156811;;3.8421206;;;;;;;
44530;SPS30;30240;47.418;0.700;2023-07-31T07:27:34;4.6231384;;4.3463035;;;;;;;
44530;SPS30;30240;47.418;0.700;2023-07-31T07:29:58;4.5977364;;4.28126;;;;;;;
44530;SPS30;30240;47.418;0.700;2023-07-31T07:32:23;4.904733;;4.6246552;;;;;;;
44530;SPS30;30240;47.418;0.700;2023-07-31T07:34:48;4.904733;;4.6246552;;;;;;;
44530;SPS30;30240;47.418;0.700;2023-07-31T07:37:14;4.669786;;4.3703017;;;;;;;
44530;SPS30;30240;47.418;0.700;2023-07-31T07:39:39;4.7954373;;4.555012;;;;;;;
44530;SPS30;30240;47.418;0.700;2023-07-31T07:42:03;4.887709;;4.5757117;;;;;;;
44530;SPS30;30240;47.418;0.700;2023-07-31T07:44:28;5.0945554;;4.737949;;;;;;;
44530;SPS30;30240;47.418;0.700;2023-07-31T07:46:53;5.0945554;;4.737949;;;;;;;
44530;SPS30;30240;47.418;0.700;2023-07-31T07:49:18;5.4143877;;4.9817224;;;;;;;
44530;SPS30;30240;47.418;0.700;2023-07-31T07:51:44;4.3741693;;3.9776678;;;;;;;
44530;SPS30;30240;47.418;0.700;2023-07-31T07:54:08;5.1694827;;4.6873007;;;;;;;
44530;SPS30;30240;47.418;0.700;2023-07-31T07:56:33;4.324495;;3.9567206;;;;;;;
44530;SPS30;30240;47.418;0.700;2023-07-31T07:58:58;4.324495;;3.9567206;;;;;;;
44530;SPS30;30240;47.418;0.700;2023-07-31T08:01:23;4.813176;;4.5101275;;;;;;;
44530;SPS30;30240;47.418;0.700;2023-07-31T08:03:49;4.6993713;;4.384778;;;;;;;
44530;SPS30;30240;47.418;0.700;2023-07-31T08:06:14;3.9817994;;3.7193065;;;;;;;
44530;SPS30;30240;47.418;0.700;2023-07-31T08:08:38;5.3658996;;4.9633045;;;;;;;
44530;SPS30;30240;47.418;0.700;2023-07-31T08:11:03;5.3658996;;4.9633045;;;;;;;
44530;SPS30;30240;47.418;0.700;2023-07-31T08:13:29;4.9904337;;4.6416955;;;;;;;
44530;SPS30;30240;47.418;0.700;2023-07-31T08:15:54;4.1296916;;3.9749925;;;;;;;
44530;SPS30;30240;47.418;0.700;2023-07-31T08:18:18;3.8324742;;3.6232731;;;;;;;
44530;SPS30;30240;47.418;0.700;2023-07-31T08:20:43;3.12697;;2.9312508;;;;;;;
44530;SPS30;30240;47.418;0.700;2023-07-31T08:23:08;4.6632104;;4.400045;;;;;;;
44530;SPS30;30240;47.418;0.700;2023-07-31T08:25:34;4.6632104;;4.400045;;;;;;;
44530;SPS30;30240;47.418;0.700;2023-07-31T08:28:02;4.4597297;;4.198943;;;;;;;
44530;SPS30;30240;47.418;0.700;2023-07-31T08:30:25;4.7852273;;4.569981;;;;;;;
44530;SPS30;30240;47.418;0.700;2023-07-31T08:32:52;4.1958575;;3.96853;;;;;;;
44530;SPS30;30240;47.418;0.700;2023-07-31T08:35:14;3.9460523;;3.78796;;;;;;;
44530;SPS30;30240;47.418;0.700;2023-07-31T08:37:38;3.9460523;;3.78796;;;;;;;
44530;SPS30;30240;47.418;0.700;2023-07-31T08:40:04;4.542663;;4.337839;;;;;;;
44530;SPS30;30240;47.418;0.700;2023-07-31T08:42:28;4.659672;;4.357292;;;;;;;
44530;SPS30;30240;47.418;0.700;2023-07-31T08:44:54;3.7969928;;3.591316;;;;;;;
44530;SPS30;30240;47.418;0.700;2023-07-31T08:47:19;4.5849133;;4.394394;;;;;;;
44530;SPS30;30240;47.418;0.700;2023-07-31T08:49:43;4.5849133;;4.394394;;;;;;;
44530;SPS30;30240;47.418;0.700;2023-07-31T08:52:09;4.2571583;;4.0327826;;;;;;;
44530;SPS30;30240;47.418;0.700;2023-07-31T08:54:33;4.2351727;;4.0627456;;;;;;;
44530;SPS30;30240;47.418;0.700;2023-07-31T08:56:59;4.182644;;4.020657;;;;;;;
44530;SPS30;30240;47.418;0.700;2023-07-31T08:59:23;3.8671005;;3.713771;;;;;;;
44530;SPS30;30240;47.418;0.700;2023-07-31T09:01:49;3.8671005;;3.713771;;;;;;;
44530;SPS30;30240;47.418;0.700;2023-07-31T09:04:14;4.3939667;;4.1773663;;;;;;;
44530;SPS30;30240;47.418;0.700;2023-07-31T09:06:38;4.077942;;3.9034972;;;;;;;
44530;SPS30;30240;47.418;0.700;2023-07-31T09:09:03;3.507689;;3.3648558;;;;;;;
44530;SPS30;30240;47.418;0.700;2023-07-31T09:11:28;4.2481976;;4.0729628;;;;;;;
44530;SPS30;30240;47.418;0.700;2023-07-31T09:13:53;4.2481976;;4.0729628;;;;;;;
44530;SPS30;30240;47.418;0.700;2023-07-31T09:16:18;4.7254977;;4.477034;;;;;;;
44530;SPS30;30240;47.418;0.700;2023-07-31T09:18:52;5.0481315;;4.8262715;;;;;;;
44530;SPS30;30240;47.418;0.700;2023-07-31T09:21:08;3.7528164;;3.5901208;;;;;;;
44530;SPS30;30240;47.418;0.700;2023-07-31T09:23:41;4.539352;;4.3635283;;;;;;;
44530;SPS30;30240;47.418;0.700;2023-07-31T09:25:59;4.539352;;4.3635283;;;;;;;
44530;SPS30;30240;47.418;0.700;2023-07-31T09:28:24;3.7905202;;3.6600296;;;;;;;
44530;SPS30;30240;47.418;0.700;2023-07-31T09:28:30;3.7905202;;3.6600296;;;;;;;
44530;SPS30;30240;47.418;0.700;2023-07-31T09:30:49;3.6451674;;3.472945;;;;;;;
44530;SPS30;30240;47.418;0.700;2023-07-31T09:33:14;3.976841;;3.8308382;;;;;;;
44530;SPS30;30240;47.418;0.700;2023-07-31T09:35:39;4.802824;;4.58062;;;;;;;
44530;SPS30;30240;47.418;0.700;2023-07-31T09:38:05;4.802824;;4.58062;;;;;;;
44530;SPS30;30240;47.418;0.700;2023-07-31T09:40:29;4.1976495;;3.9994566;;;;;;;
44530;SPS30;30240;47.418;0.700;2023-07-31T09:42:55;4.070292;;3.838245;;;;;;;
44530;SPS30;30240;47.418;0.700;2023-07-31T09:45:18;3.565757;;3.4589298;;;;;;;
44530;SPS30;30240;47.418;0.700;2023-07-31T09:47:45;4.122555;;3.8937578;;;;;;;
44530;SPS30;30240;47.418;0.700;2023-07-31T09:50:09;3.903838;;3.71012;;;;;;;
44530;SPS30;30240;47.418;0.700;2023-07-31T09:52:33;3.903838;;3.71012;;;;;;;
44530;SPS30;30240;47.418;0.700;2023-07-31T09:54:58;3.098337;;2.971854;;;;;;;
44530;SPS30;30240;47.418;0.700;2023-07-31T09:57:23;3.5850844;;3.4338603;;;;;;;
44530;SPS30;30240;47.418;0.700;2023-07-31T09:59:48;3.641984;;3.5141582;;;;;;;
44530;SPS30;30240;47.418;0.700;2023-07-31T10:02:14;2.8330753;;2.7681346;;;;;;;
44530;SPS30;30240;47.418;0.700;2023-07-31T10:04:38;2.8330753;;2.7681346;;;;;;;
44530;SPS30;30240;47.418;0.700;2023-07-31T10:07:04;3.0225024;;2.93506;;;;;;;
44530;SPS30;30240;47.418;0.700;2023-07-31T10:09:28;3.246291;;3.1178594;;;;;;;
44530;SPS30;30240;47.418;0.700;2023-07-31T10:11:55;2.3696582;;2.2539904;;;;;;;
44530;SPS30;30240;47.418;0.700;2023-07-31T10:14:19;2.972752;;2.7870111;;;;;;;
44530;SPS30;30240;47.418;0.700;2023-07-31T10:16:43;2.972752;;2.7870111;;;;;;;
44530;SPS30;30240;47.418;0.700;2023-07-31T10:19:08;3.816242;;3.6296828;;;;;;;
44530;SPS30;30240;47.418;0.700;2023-07-31T10:21:33;3.0278726;;2.9057338;;;;;;;
44530;SPS30;30240;47.418;0.700;2023-07-31T10:23:58;3.1697576;;3.047755;;;;;;;
44530;SPS30;30240;47.418;0.700;2023-07-31T10:26:23;2.840603;;2.6967292;;;;;;;
44530;SPS30;30240;47.418;0.700;2023-07-31T10:28:49;2.840603;;2.6967292;;;;;;;
44530;SPS30;30240;47.418;0.700;2023-07-31T10:31:13;3.361208;;3.2115726;;;;;;;
44530;SPS30;30240;47.418;0.700;2023-07-31T10:33:38;3.577299;;3.4674525;;;;;;;
44530;SPS30;30240;47.418;0.700;2023-07-31T10:36:13;3.299004;;3.2188773;;;;;;;
44530;SPS30;30240;47.418;0.700;2023-07-31T10:38:28;2.8304374;;2.6946597;;;;;;;
44530;SPS30;30240;47.418;0.700;2023-07-31T10:40:53;2.8304374;;2.6946597;;;;;;;
44530;SPS30;30240;47.418;0.700;2023-07-31T10:41:07;2.8304374;;2.6946597;;;;;;;
44530;SPS30;30240;47.418;0.700;2023-07-31T10:43:26;2.8474436;;2.6900408;;;;;;;
44530;SPS30;30240;47.418;0.700;2023-07-31T10:45:43;3.7044203;;3.5451374;;;;;;;
44530;SPS30;30240;47.418;0.700;2023-07-31T10:48:12;3.9613893;;3.754459;;;;;;;
44530;SPS30;30240;47.418;0.700;2023-07-31T10:50:36;2.750527;;2.666415;;;;;;;
44530;SPS30;30240;47.418;0.700;2023-07-31T10:52:58;2.750527;;2.666415;;;;;;;
44530;SPS30;30240;47.418;0.700;2023-07-31T10:55:26;3.377281;;3.2527585;;;;;;;
44530;SPS30;30240;47.418;0.700;2023-07-31T10:57:48;2.3179827;;2.2383242;;;;;;;
44530;SPS30;30240;47.418;0.700;2023-07-31T11:00:19;2.665359;;2.6144826;;;;;;;
44530;SPS30;30240;47.418;0.700;2023-07-31T11:02:39;2.797646;;2.737594;;;;;;;
44530;SPS30;30240;47.418;0.700;2023-07-31T11:05:07;2.797646;;2.737594;;;;;;;
44530;SPS30;30240;47.418;0.700;2023-07-31T11:07:47;3.547916;;3.4960873;;;;;;;
44530;SPS30;30240;47.418;0.700;2023-07-31T11:09:53;3.3786075;;3.3039863;;;;;;;
44530;SPS30;30240;47.418;0.700;2023-07-31T11:12:18;3.3545096;;3.2287614;;;;;;;
44530;SPS30;30240;47.418;0.700;2023-07-31T11:14:43;2.8033268;;2.6970503;;;;;;;
44530;SPS30;30240;47.418;0.700;2023-07-31T11:17:09;2.8033268;;2.6970503;;;;;;;
44530;SPS30;30240;47.418;0.700;2023-07-31T11:19:33;2.804464;;2.6869628;;;;;;;
44530;SPS30;30240;47.418;0.700;2023-07-31T11:21:58;3.460253;;3.3140593;;;;;;;
44530;SPS30;30240;47.418;0.700;2023-07-31T11:24:23;3.1909492;;3.0504622;;;;;;;
44530;SPS30;30240;47.418;0.700;2023-07-31T11:26:49;3.1596575;;3.0316265;;;;;;;
44530;SPS30;30240;47.418;0.700;2023-07-31T11:29:13;3.9733047;;3.8420475;;;;;;;
44530;SPS30;30240;47.418;0.700;2023-07-31T11:31:41;3.9733047;;3.8420475;;;;;;;
44530;SPS30;30240;47.418;0.700;2023-07-31T11:34:04;2.2919345;;2.2175572;;;;;;;
44530;SPS30;30240;47.418;0.700;2023-07-31T11:36:29;3.128707;;3.0631886;;;;;;;
44530;SPS30;30240;47.418;0.700;2023-07-31T11:38:53;3.8453453;;3.7191286;;;;;;;
44530;SPS30;30240;47.418;0.700;2023-07-31T11:41:18;3.5749593;;3.4837642;;;;;;;
44530;SPS30;30240;47.418;0.700;2023-07-31T11:43:44;3.5749593;;3.4837642;;;;;;;
44530;SPS30;30240;47.418;0.700;2023-07-31T11:46:09;3.3122537;;3.204524;;;;;;;
44530;SPS30;30240;47.418;0.700;2023-07-31T11:48:34;3.0254126;;2.935435;;;;;;;
44530;SPS30;30240;47.418;0.700;2023-07-31T11:50:59;2.088051;;1.996455;;;;;;;
44530;SPS30;30240;47.418;0.700;2023-07-31T11:53:25;3.24175;;3.169072;;;;;;;
44530;SPS30;30240;47.418;0.700;2023-07-31T11:55:48;3.24175;;3.169072;;;;;;;
44530;SPS30;30240;47.418;0.700;2023-07-31T11:58:13;3.2282453;;3.1159852;;;;;;;
44530;SPS30;30240;47.418;0.700;2023-07-31T12:00:38;3.328872;;3.2194908;;;;;;;
44530;SPS30;30240;47.418;0.700;2023-07-31T12:03:03;3.1819272;;3.122228;;;;;;;
44530;SPS30;30240;47.418;0.700;2023-07-31T12:05:28;3.025132;;2.9808068;;;;;;;